sensor_id;sensor_type;location;lat;lon;timestamp;temperature;humidity
46890;DHT22;32625;51.080;16.970;2023-08-07T00:02:07;13.90;99.90
46890;DHT22;32625;51.080;16.970;2023-08-07T00:04:34;13.90;99.90
46890;DHT22;32625;51.080;16.970;2023-08-07T00:07:02;13.90;99.90
46890;DHT22;32625;51.080;16.970;2023-08-07T00:09:29;13.90;99.90
46890;DHT22;32625;51.080;16.970;2023-08-07T00:11:56;13.90;99.90
46890;DHT22;32625;51.080;16.970;2023-08-07T00:14:23;13.90;99.90
46890;DHT22;32625;51.080;16.970;2023-08-07T00:16:51;13.90;99.90
46890;DHT22;32625;51.080;16.970;2023-08-07T00:19:18;13.90;99.90
46890;DHT22;32625;51.080;16.970;2023-08-07T00:21:45;13.90;99.90
46890;DHT22;32625;51.080;16.970;2023-08-07T00:24:12;13.80;99.90
46890;DHT22;32625;51.080;16.970;2023-08-07T00:26:39;13.90;99.90
46890;DHT22;32625;51.080;16.970;2023-08-07T00:29:07;13.80;99.90
46890;DHT22;32625;51.080;16.970;2023-08-07T00:31:34;13.80;99.90
46890;DHT22;32625;51.080;16.970;2023-08-07T00:34:01;13.80;99.90
46890;DHT22;32625;51.080;16.970;2023-08-07T00:36:29;13.80;99.90
46890;DHT22;32625;51.080;16.970;2023-08-07T00:38:58;13.90;99.90
46890;DHT22;32625;51.080;16.970;2023-08-07T00:41:25;13.90;99.90
46890;DHT22;32625;51.080;16.970;2023-08-07T00:43:52;13.80;99.90
46890;DHT22;32625;51.080;16.970;2023-08-07T00:46:20;13.90;99.90
46890;DHT22;32625;51.080;16.970;2023-08-07T00:48:48;13.80;99.90
46890;DHT22;32625;51.080;16.970;2023-08-07T00:51:15;13.80;99.90
46890;DHT22;32625;51.080;16.970;2023-08-07T00:53:43;13.80;99.90
46890;DHT22;32625;51.080;16.970;2023-08-07T00:56:11;13.80;99.90
46890;DHT22;32625;51.080;16.970;2023-08-07T00:58:38;13.80;99.90
46890;DHT22;32625;51.080;16.970;2023-08-07T01:01:06;13.80;99.90
46890;DHT22;32625;51.080;16.970;2023-08-07T01:03:34;13.80;99.90
46890;DHT22;32625;51.080;16.970;2023-08-07T01:06:01;13.80;99.90
46890;DHT22;32625;51.080;16.970;2023-08-07T01:08:29;13.80;99.90
46890;DHT22;32625;51.080;16.970;2023-08-07T01:11:28;13.80;99.90
46890;DHT22;32625;51.080;16.970;2023-08-07T01:16:48;13.80;99.90
46890;DHT22;32625;51.080;16.970;2023-08-07T01:19:23;13.90;99.90
46890;DHT22;32625;51.080;16.970;2023-08-07T01:22:10;13.80;99.90
46890;DHT22;32625;51.080;16.970;2023-08-07T01:24:39;13.80;99.90
46890;DHT22;32625;51.080;16.970;2023-08-07T01:32:29;13.80;99.90
46890;DHT22;32625;51.080;16.970;2023-08-07T01:35:01;13.80;99.90
46890;DHT22;32625;51.080;16.970;2023-08-07T01:37:34;13.80;99.90
46890;DHT22;32625;51.080;16.970;2023-08-07T01:40:03;13.70;99.90
46890;DHT22;32625;51.080;16.970;2023-08-07T01:42:33;13.70;99.90
46890;DHT22;32625;51.080;16.970;2023-08-07T01:45:01;13.70;99.90
46890;DHT22;32625;51.080;16.970;2023-08-07T01:47:29;13.70;99.90
46890;DHT22;32625;51.080;16.970;2023-08-07T01:49:56;13.70;99.90
46890;DHT22;32625;51.080;16.970;2023-08-07T01:52:23;13.70;99.90
46890;DHT22;32625;51.080;16.970;2023-08-07T01:54:50;13.70;99.90
46890;DHT22;32625;51.080;16.970;2023-08-07T01:57:18;13.70;99.90
46890;DHT22;32625;51.080;16.970;2023-08-07T01:59:45;13.70;99.90
46890;DHT22;32625;51.080;16.970;2023-08-07T02:02:12;13.70;99.90
46890;DHT22;32625;51.080;16.970;2023-08-07T02:04:39;13.70;99.90
46890;DHT22;32625;51.080;16.970;2023-08-07T02:07:06;13.70;99.90
46890;DHT22;32625;51.080;16.970;2023-08-07T02:09:34;13.70;99.90
46890;DHT22;32625;51.080;16.970;2023-08-07T02:12:01;13.70;99.90
46890;DHT22;32625;51.080;16.970;2023-08-07T02:14:29;13.70;99.90
46890;DHT22;32625;51.080;16.970;2023-08-07T02:16:56;13.70;99.90
46890;DHT22;32625;51.080;16.970;2023-08-07T02:19:23;13.80;99.90
46890;DHT22;32625;51.080;16.970;2023-08-07T02:21:50;13.70;99.90
46890;DHT22;32625;51.080;16.970;2023-08-07T02:24:18;13.70;99.90
46890;DHT22;32625;51.080;16.970;2023-08-07T02:26:47;13.70;99.90
46890;DHT22;32625;51.080;16.970;2023-08-07T02:29:15;13.70;99.90
46890;DHT22;32625;51.080;16.970;2023-08-07T02:31:42;13.80;99.90
46890;DHT22;32625;51.080;16.970;2023-08-07T02:34:09;13.80;99.90
46890;DHT22;32625;51.080;16.970;2023-08-07T02:36:36;13.80;99.90
46890;DHT22;32625;51.080;16.970;2023-08-07T02:39:04;13.90;99.90
46890;DHT22;32625;51.080;16.970;2023-08-07T02:41:31;13.80;99.90
46890;DHT22;32625;51.080;16.970;2023-08-07T02:44:00;13.80;99.90
46890;DHT22;32625;51.080;16.970;2023-08-07T02:46:27;13.90;99.90
46890;DHT22;32625;51.080;16.970;2023-08-07T02:48:54;13.90;99.90
46890;DHT22;32625;51.080;16.970;2023-08-07T02:51:22;13.90;99.90
46890;DHT22;32625;51.080;16.970;2023-08-07T02:53:49;13.90;99.90
46890;DHT22;32625;51.080;16.970;2023-08-07T02:56:16;13.90;99.90
46890;DHT22;32625;51.080;16.970;2023-08-07T02:58:44;14.00;99.90
46890;DHT22;32625;51.080;16.970;2023-08-07T03:01:11;14.00;99.90
46890;DHT22;32625;51.080;16.970;2023-08-07T03:03:38;14.00;99.90
46890;DHT22;32625;51.080;16.970;2023-08-07T03:06:05;14.00;99.90
46890;DHT22;32625;51.080;16.970;2023-08-07T03:08:33;14.00;99.90
46890;DHT22;32625;51.080;16.970;2023-08-07T03:11:00;14.00;99.90
46890;DHT22;32625;51.080;16.970;2023-08-07T03:13:27;14.00;99.90
46890;DHT22;32625;51.080;16.970;2023-08-07T03:16:02;14.00;99.90
46890;DHT22;32625;51.080;16.970;2023-08-07T03:18:29;14.00;99.90
46890;DHT22;32625;51.080;16.970;2023-08-07T03:20:57;14.00;99.90
46890;DHT22;32625;51.080;16.970;2023-08-07T03:23:26;14.10;99.90
46890;DHT22;32625;51.080;16.970;2023-08-07T03:26:05;14.10;99.90
46890;DHT22;32625;51.080;16.970;2023-08-07T03:28:37;14.10;99.90
46890;DHT22;32625;51.080;16.970;2023-08-07T03:31:05;14.10;99.90
46890;DHT22;32625;51.080;16.970;2023-08-07T03:33:35;14.20;99.90
46890;DHT22;32625;51.080;16.970;2023-08-07T03:36:02;14.20;99.90
46890;DHT22;32625;51.080;16.970;2023-08-07T03:38:29;14.20;99.90
46890;DHT22;32625;51.080;16.970;2023-08-07T03:40:57;14.20;99.90
46890;DHT22;32625;51.080;16.970;2023-08-07T03:43:25;14.20;99.90
46890;DHT22;32625;51.080;16.970;2023-08-07T03:45:57;14.20;99.90
46890;DHT22;32625;51.080;16.970;2023-08-07T03:48:30;14.20;99.90
46890;DHT22;32625;51.080;16.970;2023-08-07T03:51:06;14.30;99.90
46890;DHT22;32625;51.080;16.970;2023-08-07T03:53:43;14.20;99.90
46890;DHT22;32625;51.080;16.970;2023-08-07T03:56:10;14.30;99.90
46890;DHT22;32625;51.080;16.970;2023-08-07T03:58:38;14.30;99.90
46890;DHT22;32625;51.080;16.970;2023-08-07T04:01:06;14.30;99.90
46890;DHT22;32625;51.080;16.970;2023-08-07T04:03:33;14.30;99.90
46890;DHT22;32625;51.080;16.970;2023-08-07T04:06:00;14.30;99.90
46890;DHT22;32625;51.080;16.970;2023-08-07T04:08:28;14.30;99.90
46890;DHT22;32625;51.080;16.970;2023-08-07T04:11:02;14.40;99.90
46890;DHT22;32625;51.080;16.970;2023-08-07T04:13:32;14.40;99.90
46890;DHT22;32625;51.080;16.970;2023-08-07T04:15:59;14.30;99.90
46890;DHT22;32625;51.080;16.970;2023-08-07T04:18:29;14.30;99.90
46890;DHT22;32625;51.080;16.970;2023-08-07T04:20:56;14.40;99.90
46890;DHT22;32625;51.080;16.970;2023-08-07T04:23:24;14.40;99.90
46890;DHT22;32625;51.080;16.970;2023-08-07T04:25:52;14.30;99.90
46890;DHT22;32625;51.080;16.970;2023-08-07T04:28:20;14.40;99.90
46890;DHT22;32625;51.080;16.970;2023-08-07T04:30:51;14.40;99.90
46890;DHT22;32625;51.080;16.970;2023-08-07T04:33:19;14.40;99.90
46890;DHT22;32625;51.080;16.970;2023-08-07T04:35:47;14.40;99.90
46890;DHT22;32625;51.080;16.970;2023-08-07T04:38:15;14.40;99.90
46890;DHT22;32625;51.080;16.970;2023-08-07T04:40:46;14.40;99.90
46890;DHT22;32625;51.080;16.970;2023-08-07T04:43:15;14.40;99.90
46890;DHT22;32625;51.080;16.970;2023-08-07T04:45:43;14.40;99.90
46890;DHT22;32625;51.080;16.970;2023-08-07T04:48:13;14.40;99.90
46890;DHT22;32625;51.080;16.970;2023-08-07T04:50:40;14.40;99.90
46890;DHT22;32625;51.080;16.970;2023-08-07T04:53:08;14.40;99.90
46890;DHT22;32625;51.080;16.970;2023-08-07T04:55:35;14.40;99.90
46890;DHT22;32625;51.080;16.970;2023-08-07T04:58:03;14.40;99.90
46890;DHT22;32625;51.080;16.970;2023-08-07T05:00:30;14.40;99.90
46890;DHT22;32625;51.080;16.970;2023-08-07T05:02:58;14.40;99.90
46890;DHT22;32625;51.080;16.970;2023-08-07T05:05:25;14.50;99.90
46890;DHT22;32625;51.080;16.970;2023-08-07T05:07:54;14.50;99.90
46890;DHT22;32625;51.080;16.970;2023-08-07T05:10:22;14.50;99.90
46890;DHT22;32625;51.080;16.970;2023-08-07T05:12:49;14.50;99.90
46890;DHT22;32625;51.080;16.970;2023-08-07T05:15:23;14.50;99.90
46890;DHT22;32625;51.080;16.970;2023-08-07T05:17:50;14.50;99.90
46890;DHT22;32625;51.080;16.970;2023-08-07T05:20:18;14.50;99.90
46890;DHT22;32625;51.080;16.970;2023-08-07T05:22:45;14.40;99.90
46890;DHT22;32625;51.080;16.970;2023-08-07T05:25:13;14.40;99.90
46890;DHT22;32625;51.080;16.970;2023-08-07T05:27:43;14.40;99.90
46890;DHT22;32625;51.080;16.970;2023-08-07T05:30:11;14.40;99.90
46890;DHT22;32625;51.080;16.970;2023-08-07T05:32:38;14.40;99.90
46890;DHT22;32625;51.080;16.970;2023-08-07T05:35:07;14.50;99.90
46890;DHT22;32625;51.080;16.970;2023-08-07T05:37:35;14.50;99.90
46890;DHT22;32625;51.080;16.970;2023-08-07T05:40:03;14.50;99.90
46890;DHT22;32625;51.080;16.970;2023-08-07T05:42:30;14.40;99.90
46890;DHT22;32625;51.080;16.970;2023-08-07T05:44:58;14.40;99.90
46890;DHT22;32625;51.080;16.970;2023-08-07T05:47:25;14.40;99.90
46890;DHT22;32625;51.080;16.970;2023-08-07T05:49:53;14.40;99.90
46890;DHT22;32625;51.080;16.970;2023-08-07T05:52:20;14.40;99.90
46890;DHT22;32625;51.080;16.970;2023-08-07T05:54:47;14.50;99.90
46890;DHT22;32625;51.080;16.970;2023-08-07T05:57:15;14.40;99.90
46890;DHT22;32625;51.080;16.970;2023-08-07T05:59:42;14.50;99.90
46890;DHT22;32625;51.080;16.970;2023-08-07T06:02:10;14.40;99.90
46890;DHT22;32625;51.080;16.970;2023-08-07T06:04:41;14.40;99.90
46890;DHT22;32625;51.080;16.970;2023-08-07T06:07:08;14.50;99.90
46890;DHT22;32625;51.080;16.970;2023-08-07T06:09:35;14.40;99.90
46890;DHT22;32625;51.080;16.970;2023-08-07T06:12:04;14.40;99.90
46890;DHT22;32625;51.080;16.970;2023-08-07T06:14:31;14.50;99.90
46890;DHT22;32625;51.080;16.970;2023-08-07T06:16:58;14.40;99.90
46890;DHT22;32625;51.080;16.970;2023-08-07T06:19:27;14.50;99.90
46890;DHT22;32625;51.080;16.970;2023-08-07T06:21:58;14.50;99.90
46890;DHT22;32625;51.080;16.970;2023-08-07T06:24:26;14.50;99.90
46890;DHT22;32625;51.080;16.970;2023-08-07T06:26:53;14.50;99.90
46890;DHT22;32625;51.080;16.970;2023-08-07T06:29:21;14.50;99.90
46890;DHT22;32625;51.080;16.970;2023-08-07T06:31:48;14.60;99.90
46890;DHT22;32625;51.080;16.970;2023-08-07T06:34:15;14.60;99.90
46890;DHT22;32625;51.080;16.970;2023-08-07T06:36:42;14.60;99.90
46890;DHT22;32625;51.080;16.970;2023-08-07T06:39:10;14.60;99.90
46890;DHT22;32625;51.080;16.970;2023-08-07T06:41:37;14.60;99.90
46890;DHT22;32625;51.080;16.970;2023-08-07T06:44:05;14.70;99.90
46890;DHT22;32625;51.080;16.970;2023-08-07T06:46:32;14.60;99.90
46890;DHT22;32625;51.080;16.970;2023-08-07T06:48:59;14.60;99.90
46890;DHT22;32625;51.080;16.970;2023-08-07T06:51:26;14.60;99.90
46890;DHT22;32625;51.080;16.970;2023-08-07T06:53:53;14.70;99.90
46890;DHT22;32625;51.080;16.970;2023-08-07T06:56:20;14.60;99.90
46890;DHT22;32625;51.080;16.970;2023-08-07T06:58:48;14.60;99.90
46890;DHT22;32625;51.080;16.970;2023-08-07T07:01:15;14.70;99.90
46890;DHT22;32625;51.080;16.970;2023-08-07T07:03:42;14.70;99.90
46890;DHT22;32625;51.080;16.970;2023-08-07T07:06:12;14.70;99.90
46890;DHT22;32625;51.080;16.970;2023-08-07T07:08:40;14.70;99.90
46890;DHT22;32625;51.080;16.970;2023-08-07T07:11:07;14.80;99.90
46890;DHT22;32625;51.080;16.970;2023-08-07T07:13:35;14.80;99.90
46890;DHT22;32625;51.080;16.970;2023-08-07T07:16:02;14.80;99.90
46890;DHT22;32625;51.080;16.970;2023-08-07T07:18:30;14.90;99.90
46890;DHT22;32625;51.080;16.970;2023-08-07T07:20:58;14.90;99.90
46890;DHT22;32625;51.080;16.970;2023-08-07T07:23:26;14.90;99.90
46890;DHT22;32625;51.080;16.970;2023-08-07T07:25:54;14.90;99.90
46890;DHT22;32625;51.080;16.970;2023-08-07T07:28:28;15.00;99.90
46890;DHT22;32625;51.080;16.970;2023-08-07T07:30:55;15.00;99.90
46890;DHT22;32625;51.080;16.970;2023-08-07T07:33:23;15.10;99.90
46890;DHT22;32625;51.080;16.970;2023-08-07T07:35:50;15.20;99.90
46890;DHT22;32625;51.080;16.970;2023-08-07T07:38:17;15.30;99.90
46890;DHT22;32625;51.080;16.970;2023-08-07T07:40:45;15.40;99.90
46890;DHT22;32625;51.080;16.970;2023-08-07T07:43:12;15.30;99.90
46890;DHT22;32625;51.080;16.970;2023-08-07T07:45:39;15.40;99.90
46890;DHT22;32625;51.080;16.970;2023-08-07T07:48:06;15.40;99.90
46890;DHT22;32625;51.080;16.970;2023-08-07T07:50:35;15.40;99.90
46890;DHT22;32625;51.080;16.970;2023-08-07T07:53:02;15.40;99.90
46890;DHT22;32625;51.080;16.970;2023-08-07T07:55:29;15.50;99.90
46890;DHT22;32625;51.080;16.970;2023-08-07T07:57:56;15.60;99.90
46890;DHT22;32625;51.080;16.970;2023-08-07T08:00:23;15.70;99.90
46890;DHT22;32625;51.080;16.970;2023-08-07T08:02:53;15.80;99.90
46890;DHT22;32625;51.080;16.970;2023-08-07T08:05:21;15.90;99.90
46890;DHT22;32625;51.080;16.970;2023-08-07T08:07:48;16.00;99.90
46890;DHT22;32625;51.080;16.970;2023-08-07T08:10:16;16.00;99.90
46890;DHT22;32625;51.080;16.970;2023-08-07T08:12:43;16.00;99.90
46890;DHT22;32625;51.080;16.970;2023-08-07T08:15:11;16.10;99.90
46890;DHT22;32625;51.080;16.970;2023-08-07T08:17:38;16.10;99.90
46890;DHT22;32625;51.080;16.970;2023-08-07T08:20:07;16.30;99.90
46890;DHT22;32625;51.080;16.970;2023-08-07T08:22:35;16.20;99.90
46890;DHT22;32625;51.080;16.970;2023-08-07T08:25:02;16.20;99.90
46890;DHT22;32625;51.080;16.970;2023-08-07T08:27:31;16.20;99.90
46890;DHT22;32625;51.080;16.970;2023-08-07T08:29:58;16.20;99.90
46890;DHT22;32625;51.080;16.970;2023-08-07T08:32:26;16.20;99.90
46890;DHT22;32625;51.080;16.970;2023-08-07T08:34:53;16.20;99.90
46890;DHT22;32625;51.080;16.970;2023-08-07T08:37:20;16.20;99.90
46890;DHT22;32625;51.080;16.970;2023-08-07T08:39:48;16.20;99.90
46890;DHT22;32625;51.080;16.970;2023-08-07T08:42:15;16.20;99.90
46890;DHT22;32625;51.080;16.970;2023-08-07T08:44:53;16.30;99.90
46890;DHT22;32625;51.080;16.970;2023-08-07T08:47:25;16.30;99.90
46890;DHT22;32625;51.080;16.970;2023-08-07T08:50:13;16.30;99.90
46890;DHT22;32625;51.080;16.970;2023-08-07T08:52:43;16.30;99.90
46890;DHT22;32625;51.080;16.970;2023-08-07T08:55:13;16.30;99.90
46890;DHT22;32625;51.080;16.970;2023-08-07T08:57:41;16.20;99.90
46890;DHT22;32625;51.080;16.970;2023-08-07T09:00:09;16.10;99.90
46890;DHT22;32625;51.080;16.970;2023-08-07T09:02:49;16.20;99.90
46890;DHT22;32625;51.080;16.970;2023-08-07T09:05:18;16.20;99.90
46890;DHT22;32625;51.080;16.970;2023-08-07T09:07:47;16.30;99.90
46890;DHT22;32625;51.080;16.970;2023-08-07T09:10:15;16.40;99.90
46890;DHT22;32625;51.080;16.970;2023-08-07T09:13:03;16.50;99.90
46890;DHT22;32625;51.080;16.970;2023-08-07T09:15:32;16.70;99.90
46890;DHT22;32625;51.080;16.970;2023-08-07T09:18:00;16.90;99.90
46890;DHT22;32625;51.080;16.970;2023-08-07T09:20:30;17.10;99.90
46890;DHT22;32625;51.080;16.970;2023-08-07T09:22:58;17.20;99.90
46890;DHT22;32625;51.080;16.970;2023-08-07T09:25:31;17.10;99.90
46890;DHT22;32625;51.080;16.970;2023-08-07T09:28:04;17.10;99.90
46890;DHT22;32625;51.080;16.970;2023-08-07T09:30:36;17.30;99.90
46890;DHT22;32625;51.080;16.970;2023-08-07T09:33:04;17.30;99.90
46890;DHT22;32625;51.080;16.970;2023-08-07T09:35:33;17.60;99.90
46890;DHT22;32625;51.080;16.970;2023-08-07T09:38:01;17.50;99.90
46890;DHT22;32625;51.080;16.970;2023-08-07T09:40:29;17.30;99.90
46890;DHT22;32625;51.080;16.970;2023-08-07T09:43:00;17.20;99.90
46890;DHT22;32625;51.080;16.970;2023-08-07T09:45:28;17.30;99.90
46890;DHT22;32625;51.080;16.970;2023-08-07T09:48:01;17.40;99.90
46890;DHT22;32625;51.080;16.970;2023-08-07T09:50:29;17.60;99.90
46890;DHT22;32625;51.080;16.970;2023-08-07T09:52:59;17.70;99.90
46890;DHT22;32625;51.080;16.970;2023-08-07T09:55:26;17.80;99.90
46890;DHT22;32625;51.080;16.970;2023-08-07T09:57:54;17.80;99.90
46890;DHT22;32625;51.080;16.970;2023-08-07T10:00:21;18.00;99.90
46890;DHT22;32625;51.080;16.970;2023-08-07T10:02:50;18.00;99.90
46890;DHT22;32625;51.080;16.970;2023-08-07T10:05:18;18.00;99.90
46890;DHT22;32625;51.080;16.970;2023-08-07T10:07:46;18.00;99.90
46890;DHT22;32625;51.080;16.970;2023-08-07T10:10:15;18.10;99.90
46890;DHT22;32625;51.080;16.970;2023-08-07T10:12:43;18.30;99.90
46890;DHT22;32625;51.080;16.970;2023-08-07T10:15:14;18.30;99.90
46890;DHT22;32625;51.080;16.970;2023-08-07T10:17:41;18.30;99.90
46890;DHT22;32625;51.080;16.970;2023-08-07T10:20:11;18.40;99.90
46890;DHT22;32625;51.080;16.970;2023-08-07T10:22:41;18.50;99.90
46890;DHT22;32625;51.080;16.970;2023-08-07T10:25:09;18.60;99.90
46890;DHT22;32625;51.080;16.970;2023-08-07T10:27:38;18.30;99.90
46890;DHT22;32625;51.080;16.970;2023-08-07T10:30:09;18.20;99.90
46890;DHT22;32625;51.080;16.970;2023-08-07T10:32:40;18.10;99.90
46890;DHT22;32625;51.080;16.970;2023-08-07T10:35:08;18.20;99.90
46890;DHT22;32625;51.080;16.970;2023-08-07T10:37:44;18.30;99.90
46890;DHT22;32625;51.080;16.970;2023-08-07T10:40:12;18.30;99.90
46890;DHT22;32625;51.080;16.970;2023-08-07T10:42:56;18.40;99.90
46890;DHT22;32625;51.080;16.970;2023-08-07T10:45:27;18.60;99.90
46890;DHT22;32625;51.080;16.970;2023-08-07T10:48:08;18.80;99.90
46890;DHT22;32625;51.080;16.970;2023-08-07T10:51:06;19.00;99.90
46890;DHT22;32625;51.080;16.970;2023-08-07T10:53:42;19.00;99.90
46890;DHT22;32625;51.080;16.970;2023-08-07T10:56:34;19.10;99.90
46890;DHT22;32625;51.080;16.970;2023-08-07T10:59:10;19.00;99.90
46890;DHT22;32625;51.080;16.970;2023-08-07T11:04:13;19.00;97.60
46890;DHT22;32625;51.080;16.970;2023-08-07T11:06:42;19.00;97.50
46890;DHT22;32625;51.080;16.970;2023-08-07T11:09:11;19.30;97.10
46890;DHT22;32625;51.080;16.970;2023-08-07T11:11:56;19.30;96.50
46890;DHT22;32625;51.080;16.970;2023-08-07T11:14:23;19.10;97.40
46890;DHT22;32625;51.080;16.970;2023-08-07T11:16:52;18.90;99.50
46890;DHT22;32625;51.080;16.970;2023-08-07T11:19:20;18.70;98.60
46890;DHT22;32625;51.080;16.970;2023-08-07T11:21:49;18.50;99.90
46890;DHT22;32625;51.080;16.970;2023-08-07T11:24:17;18.40;99.90
46890;DHT22;32625;51.080;16.970;2023-08-07T11:26:47;18.40;99.90
46890;DHT22;32625;51.080;16.970;2023-08-07T11:29:18;18.30;99.90
46890;DHT22;32625;51.080;16.970;2023-08-07T11:31:46;18.20;99.90
46890;DHT22;32625;51.080;16.970;2023-08-07T11:34:13;18.30;99.90
46890;DHT22;32625;51.080;16.970;2023-08-07T11:36:43;18.30;99.90
46890;DHT22;32625;51.080;16.970;2023-08-07T11:39:12;18.40;99.90
46890;DHT22;32625;51.080;16.970;2023-08-07T11:41:39;18.60;99.90
46890;DHT22;32625;51.080;16.970;2023-08-07T11:44:08;18.80;99.40
46890;DHT22;32625;51.080;16.970;2023-08-07T11:46:35;19.00;99.50
46890;DHT22;32625;51.080;16.970;2023-08-07T11:49:04;19.20;99.90
46890;DHT22;32625;51.080;16.970;2023-08-07T11:51:32;19.30;99.90
46890;DHT22;32625;51.080;16.970;2023-08-07T11:53:59;19.30;98.00
46890;DHT22;32625;51.080;16.970;2023-08-07T11:56:27;19.30;98.50
46890;DHT22;32625;51.080;16.970;2023-08-07T11:58:56;19.30;97.20
46890;DHT22;32625;51.080;16.970;2023-08-07T12:01:25;19.20;96.50
46890;DHT22;32625;51.080;16.970;2023-08-07T12:06:35;18.90;96.50
46890;DHT22;32625;51.080;16.970;2023-08-07T12:09:03;18.70;97.20
46890;DHT22;32625;51.080;16.970;2023-08-07T12:11:32;18.60;99.90
46890;DHT22;32625;51.080;16.970;2023-08-07T12:14:00;18.40;99.90
46890;DHT22;32625;51.080;16.970;2023-08-07T12:16:32;18.00;99.90
46890;DHT22;32625;51.080;16.970;2023-08-07T12:19:00;17.90;99.90
46890;DHT22;32625;51.080;16.970;2023-08-07T12:21:27;17.60;99.90
46890;DHT22;32625;51.080;16.970;2023-08-07T12:23:55;17.50;99.90
46890;DHT22;32625;51.080;16.970;2023-08-07T12:26:23;17.40;99.90
46890;DHT22;32625;51.080;16.970;2023-08-07T12:28:52;17.40;99.90
46890;DHT22;32625;51.080;16.970;2023-08-07T12:31:19;17.50;99.90
46890;DHT22;32625;51.080;16.970;2023-08-07T12:33:47;17.70;99.90
46890;DHT22;32625;51.080;16.970;2023-08-07T12:36:14;17.80;99.90
46890;DHT22;32625;51.080;16.970;2023-08-07T12:38:44;17.80;99.90
46890;DHT22;32625;51.080;16.970;2023-08-07T12:41:11;17.80;99.90
46890;DHT22;32625;51.080;16.970;2023-08-07T12:43:42;17.90;99.90
46890;DHT22;32625;51.080;16.970;2023-08-07T12:46:10;17.90;99.90
46890;DHT22;32625;51.080;16.970;2023-08-07T12:48:40;18.20;99.90
46890;DHT22;32625;51.080;16.970;2023-08-07T12:51:07;18.50;99.90
46890;DHT22;32625;51.080;16.970;2023-08-07T12:53:35;18.60;99.90
46890;DHT22;32625;51.080;16.970;2023-08-07T12:56:02;18.60;99.90
46890;DHT22;32625;51.080;16.970;2023-08-07T12:58:30;18.60;99.90
46890;DHT22;32625;51.080;16.970;2023-08-07T13:00:57;18.60;99.90
46890;DHT22;32625;51.080;16.970;2023-08-07T13:03:25;18.50;99.90
46890;DHT22;32625;51.080;16.970;2023-08-07T13:05:52;18.40;99.90
46890;DHT22;32625;51.080;16.970;2023-08-07T13:08:19;18.50;99.90
46890;DHT22;32625;51.080;16.970;2023-08-07T13:10:46;18.50;99.90
46890;DHT22;32625;51.080;16.970;2023-08-07T13:13:16;18.50;99.90
46890;DHT22;32625;51.080;16.970;2023-08-07T13:15:43;18.50;99.90
46890;DHT22;32625;51.080;16.970;2023-08-07T13:18:10;18.30;99.90
46890;DHT22;32625;51.080;16.970;2023-08-07T13:20:38;18.10;99.90
46890;DHT22;32625;51.080;16.970;2023-08-07T13:23:05;18.00;99.90
46890;DHT22;32625;51.080;16.970;2023-08-07T13:25:33;18.00;99.90
46890;DHT22;32625;51.080;16.970;2023-08-07T13:28:01;17.90;99.90
46890;DHT22;32625;51.080;16.970;2023-08-07T13:30:31;17.80;99.90
46890;DHT22;32625;51.080;16.970;2023-08-07T13:33:03;17.90;99.90
46890;DHT22;32625;51.080;16.970;2023-08-07T13:35:30;17.90;99.90
46890;DHT22;32625;51.080;16.970;2023-08-07T13:38:00;18.10;99.90
46890;DHT22;32625;51.080;16.970;2023-08-07T13:40:32;18.30;99.90
46890;DHT22;32625;51.080;16.970;2023-08-07T13:42:59;18.60;99.90
46890;DHT22;32625;51.080;16.970;2023-08-07T13:45:29;18.70;99.90
46890;DHT22;32625;51.080;16.970;2023-08-07T13:47:57;18.70;99.90
46890;DHT22;32625;51.080;16.970;2023-08-07T13:50:24;18.80;99.90
46890;DHT22;32625;51.080;16.970;2023-08-07T13:52:51;18.80;99.90
46890;DHT22;32625;51.080;16.970;2023-08-07T13:55:34;18.80;99.90
46890;DHT22;32625;51.080;16.970;2023-08-07T13:58:01;18.70;99.90
46890;DHT22;32625;51.080;16.970;2023-08-07T14:00:28;18.80;99.90
46890;DHT22;32625;51.080;16.970;2023-08-07T14:02:55;19.10;99.90
46890;DHT22;32625;51.080;16.970;2023-08-07T14:05:23;19.40;99.90
46890;DHT22;32625;51.080;16.970;2023-08-07T14:07:50;19.40;99.90
46890;DHT22;32625;51.080;16.970;2023-08-07T14:10:17;19.20;99.90
46890;DHT22;32625;51.080;16.970;2023-08-07T14:12:45;19.20;99.90
46890;DHT22;32625;51.080;16.970;2023-08-07T14:15:12;19.00;99.90
46890;DHT22;32625;51.080;16.970;2023-08-07T14:17:39;18.90;99.90
46890;DHT22;32625;51.080;16.970;2023-08-07T14:20:07;18.70;99.90
46890;DHT22;32625;51.080;16.970;2023-08-07T14:22:35;18.60;99.90
46890;DHT22;32625;51.080;16.970;2023-08-07T14:25:05;18.60;99.90
46890;DHT22;32625;51.080;16.970;2023-08-07T14:27:32;18.70;99.90
46890;DHT22;32625;51.080;16.970;2023-08-07T14:30:01;18.80;99.90
46890;DHT22;32625;51.080;16.970;2023-08-07T14:32:28;19.00;99.90
46890;DHT22;32625;51.080;16.970;2023-08-07T14:34:55;19.20;99.90
46890;DHT22;32625;51.080;16.970;2023-08-07T14:37:22;19.20;99.90
46890;DHT22;32625;51.080;16.970;2023-08-07T14:39:49;19.30;99.90
46890;DHT22;32625;51.080;16.970;2023-08-07T14:42:19;19.40;99.90
46890;DHT22;32625;51.080;16.970;2023-08-07T14:44:46;19.50;99.90
46890;DHT22;32625;51.080;16.970;2023-08-07T14:47:13;19.50;99.90
46890;DHT22;32625;51.080;16.970;2023-08-07T14:49:41;19.50;99.90
46890;DHT22;32625;51.080;16.970;2023-08-07T14:52:08;19.50;99.90
46890;DHT22;32625;51.080;16.970;2023-08-07T14:54:35;19.60;99.10
46890;DHT22;32625;51.080;16.970;2023-08-07T14:57:03;19.60;98.70
46890;DHT22;32625;51.080;16.970;2023-08-07T14:59:30;19.80;96.60
46890;DHT22;32625;51.080;16.970;2023-08-07T15:01:58;19.60;95.80
46890;DHT22;32625;51.080;16.970;2023-08-07T15:04:26;19.60;95.50
46890;DHT22;32625;51.080;16.970;2023-08-07T15:06:53;19.50;95.90
46890;DHT22;32625;51.080;16.970;2023-08-07T15:09:21;19.40;96.40
46890;DHT22;32625;51.080;16.970;2023-08-07T15:11:48;19.30;97.20
46890;DHT22;32625;51.080;16.970;2023-08-07T15:14:15;19.10;97.40
46890;DHT22;32625;51.080;16.970;2023-08-07T15:16:42;19.00;98.00
46890;DHT22;32625;51.080;16.970;2023-08-07T15:19:09;19.00;98.60
46890;DHT22;32625;51.080;16.970;2023-08-07T15:21:37;18.90;99.30
46890;DHT22;32625;51.080;16.970;2023-08-07T15:24:04;18.80;99.90
46890;DHT22;32625;51.080;16.970;2023-08-07T15:26:31;18.90;99.90
46890;DHT22;32625;51.080;16.970;2023-08-07T15:28:58;18.90;99.90
46890;DHT22;32625;51.080;16.970;2023-08-07T15:31:26;18.90;99.90
46890;DHT22;32625;51.080;16.970;2023-08-07T15:33:53;18.90;99.90
46890;DHT22;32625;51.080;16.970;2023-08-07T15:36:23;18.90;99.90
46890;DHT22;32625;51.080;16.970;2023-08-07T15:38:50;18.90;99.90